createdAt,value
2022-10-08T00:02:28.854Z,7.63
2022-10-08T00:04:57.984Z,6.55
2022-10-08T00:07:26.651Z,6.32
2022-10-08T00:09:56.366Z,6.45
2022-10-08T00:12:24.701Z,7.18
2022-10-08T00:14:54.027Z,6.68
2022-10-08T00:17:22.276Z,6.78
2022-10-08T00:19:50.560Z,7.60
2022-10-08T00:22:18.891Z,6.70
2022-10-08T00:24:47.206Z,6.55
2022-10-08T00:27:17.163Z,7.70
2022-10-08T00:29:45.824Z,6.78
2022-10-08T00:32:14.181Z,7.18
2022-10-08T00:34:43.288Z,6.90
2022-10-08T00:37:11.658Z,6.97
2022-10-08T00:39:40.077Z,7.95
2022-10-08T00:42:08.627Z,8.77
2022-10-08T00:44:54.396Z,7.45
2022-10-08T00:47:35.213Z,6.53
2022-10-08T00:50:08.514Z,6.95
2022-10-08T00:52:40.707Z,7.30
2022-10-08T00:55:10.292Z,8.35
2022-10-08T00:57:39.570Z,6.60
2022-10-08T01:00:12.737Z,7.28
2022-10-08T01:02:41.344Z,7.13
2022-10-08T01:05:11.130Z,6.95
2022-10-08T01:07:49.562Z,6.97
2022-10-08T01:10:27.481Z,7.22
2022-10-08T01:13:11.315Z,6.93
2022-10-08T01:15:49.466Z,7.07
2022-10-08T01:18:29.173Z,7.78
2022-10-08T01:21:08.866Z,7.75
2022-10-08T01:24:09.848Z,7.65
2022-10-08T01:26:50.635Z,6.80
2022-10-08T01:29:23.313Z,7.35
2022-10-08T01:31:55.274Z,7.28
2022-10-08T01:34:32.023Z,6.70
2022-10-08T01:37:02.605Z,8.15
2022-10-08T01:39:37.378Z,7.72
2022-10-08T01:42:08.731Z,7.78
2022-10-08T01:44:42.721Z,7.35
2022-10-08T01:47:15.169Z,7.30
2022-10-08T01:49:50.328Z,6.88
2022-10-08T01:52:23.070Z,7.00
2022-10-08T01:54:53.812Z,7.95
2022-10-08T01:57:24.130Z,7.55
2022-10-08T01:59:58.363Z,6.90
2022-10-08T02:02:27.629Z,6.88
2022-10-08T02:04:57.091Z,7.22
2022-10-08T02:07:29.117Z,7.82
2022-10-08T02:10:07.773Z,6.95
2022-10-08T02:12:37.273Z,6.68
2022-10-08T02:15:09.651Z,7.25
2022-10-08T02:17:43.913Z,7.50
2022-10-08T02:20:20.275Z,7.40
2022-10-08T02:22:55.806Z,7.32
2022-10-08T02:25:30.732Z,7.35
2022-10-08T02:28:07.514Z,8.45
2022-10-08T02:30:41.849Z,9.63
2022-10-08T02:33:15.862Z,6.88
2022-10-08T02:35:48.288Z,7.40
2022-10-08T02:38:22.344Z,7.07
2022-10-08T02:40:54.501Z,7.05
2022-10-08T02:43:27.034Z,7.93
2022-10-08T02:46:00.384Z,7.05
2022-10-08T02:48:32.434Z,7.90
2022-10-08T02:51:08.471Z,7.00
2022-10-08T02:53:39.329Z,7.03
2022-10-08T02:56:12.484Z,8.25
2022-10-08T02:58:41.741Z,8.73
2022-10-08T03:01:18.218Z,7.65
2022-10-08T03:03:50.733Z,7.10
2022-10-08T03:06:19.851Z,6.63
2022-10-08T03:08:50.353Z,8.68
2022-10-08T03:11:18.861Z,7.97
2022-10-08T03:13:50.400Z,7.13
2022-10-08T03:16:23.083Z,7.68
2022-10-08T03:18:52.548Z,6.35
2022-10-08T03:21:21.473Z,7.30
2022-10-08T03:23:49.877Z,6.93
2022-10-08T03:26:19.032Z,7.03
2022-10-08T03:28:47.350Z,7.47
2022-10-08T03:31:15.809Z,7.32
2022-10-08T03:33:45.610Z,7.30
2022-10-08T03:36:13.907Z,7.07
2022-10-08T03:38:42.145Z,7.75
2022-10-08T03:41:10.551Z,8.25
2022-10-08T03:43:38.947Z,7.40
2022-10-08T03:46:07.566Z,7.22
2022-10-08T03:48:35.964Z,6.65
2022-10-08T03:51:07.915Z,6.78
2022-10-08T03:53:37.947Z,7.28
2022-10-08T03:56:08.018Z,8.18
2022-10-08T03:58:36.661Z,6.75
2022-10-08T04:01:07.262Z,7.28
2022-10-08T04:03:36.009Z,6.70
2022-10-08T04:06:06.147Z,6.97
2022-10-08T04:08:34.969Z,7.30
2022-10-08T04:11:05.045Z,7.95
2022-10-08T04:13:33.660Z,8.48
2022-10-08T04:16:03.114Z,7.25
2022-10-08T04:18:31.773Z,7.00
2022-10-08T04:21:00.680Z,6.97
2022-10-08T04:23:32.384Z,7.30
2022-10-08T04:26:00.943Z,7.53
2022-10-08T04:28:29.587Z,7.30
2022-10-08T04:30:59.573Z,7.65
2022-10-08T04:33:28.757Z,8.40
2022-10-08T04:36:00.269Z,7.10
2022-10-08T04:38:30.411Z,6.90
2022-10-08T04:41:06.689Z,7.15
2022-10-08T04:43:35.625Z,6.75
2022-10-08T04:46:04.447Z,6.43
2022-10-08T04:48:32.780Z,7.03
2022-10-08T04:51:05.768Z,6.63
2022-10-08T04:53:37.959Z,6.30
2022-10-08T04:56:11.409Z,7.30
2022-10-08T04:58:40.248Z,7.28
2022-10-08T05:01:11.685Z,6.80
2022-10-08T05:03:41.362Z,6.68
2022-10-08T05:06:10.019Z,6.93
2022-10-08T05:08:40.211Z,7.00
2022-10-08T05:11:08.977Z,7.65
2022-10-08T05:13:37.631Z,7.10
2022-10-08T05:16:07.403Z,6.50
2022-10-08T05:18:36.386Z,7.45
2022-10-08T05:21:06.248Z,8.75
2022-10-08T05:23:35.673Z,6.90
2022-10-08T05:26:12.793Z,7.57
2022-10-08T05:28:41.181Z,7.55
2022-10-08T05:31:09.592Z,7.68
2022-10-08T05:33:37.966Z,7.45
2022-10-08T05:36:08.186Z,11.02
2022-10-08T05:38:36.995Z,8.18
2022-10-08T05:41:15.693Z,7.35
2022-10-08T05:43:44.453Z,6.80
2022-10-08T05:46:13.441Z,7.10
2022-10-08T05:48:42.336Z,7.20
2022-10-08T05:51:12.762Z,7.10
2022-10-08T05:53:43.317Z,7.90
2022-10-08T05:56:13.960Z,6.68
2022-10-08T05:58:43.544Z,7.63
2022-10-08T06:01:14.827Z,7.70
2022-10-08T06:03:43.439Z,7.55
2022-10-08T06:06:12.952Z,7.72
2022-10-08T06:08:41.465Z,7.10
2022-10-08T06:11:09.949Z,7.57
2022-10-08T06:13:39.772Z,8.13
2022-10-08T06:16:10.076Z,7.60
2022-10-08T06:18:39.490Z,7.80
2022-10-08T06:21:09.039Z,7.50
2022-10-08T06:23:37.854Z,7.68
2022-10-08T06:26:08.237Z,8.07
2022-10-08T06:28:38.032Z,7.93
2022-10-08T06:31:09.520Z,9.23
2022-10-08T06:33:38.043Z,8.93
2022-10-08T06:36:07.838Z,8.82
2022-10-08T06:38:36.134Z,8.77
2022-10-08T06:41:04.478Z,10.55
2022-10-08T06:43:32.826Z,8.95
2022-10-08T06:46:05.438Z,8.57
2022-10-08T06:48:35.494Z,10.43
2022-10-08T06:51:05.982Z,10.90
2022-10-08T06:53:34.827Z,13.32
2022-10-08T06:56:05.476Z,11.63
2022-10-08T06:58:35.657Z,12.93
2022-10-08T07:01:05.916Z,13.65
2022-10-08T07:03:36.324Z,13.68
2022-10-08T07:06:06.510Z,14.10
2022-10-08T07:08:36.088Z,13.30
2022-10-08T07:11:06.166Z,12.82
2022-10-08T07:13:34.827Z,13.65
2022-10-08T07:16:04.539Z,13.80
2022-10-08T07:18:33.777Z,13.63
2022-10-08T07:21:03.847Z,13.02
2022-10-08T07:23:32.456Z,13.15
2022-10-08T07:26:02.828Z,13.85
2022-10-08T07:28:33.899Z,14.43
2022-10-08T07:31:05.899Z,12.63
2022-10-08T07:33:34.529Z,12.70
2022-10-08T07:36:14.776Z,12.82
2022-10-08T07:38:43.949Z,12.38
2022-10-08T07:41:13.654Z,12.23
2022-10-08T07:43:43.404Z,11.25
2022-10-08T07:46:13.208Z,12.88
2022-10-08T07:48:42.817Z,12.10
2022-10-08T07:51:14.448Z,12.35
2022-10-08T07:53:43.771Z,12.32
2022-10-08T07:56:14.251Z,11.52
2022-10-08T07:58:43.148Z,11.60
2022-10-08T08:01:16.018Z,11.90
2022-10-08T08:03:45.157Z,13.68
2022-10-08T08:06:17.161Z,12.40
2022-10-08T08:08:46.854Z,12.30
2022-10-08T08:11:17.199Z,12.30
2022-10-08T08:13:46.039Z,11.20
2022-10-08T08:16:16.600Z,11.65
2022-10-08T08:18:46.114Z,13.73
2022-10-08T08:21:17.639Z,13.90
2022-10-08T08:23:48.363Z,14.02
2022-10-08T08:26:18.471Z,19.33
2022-10-08T08:28:50.931Z,17.25
2022-10-08T08:31:21.535Z,15.93
2022-10-08T08:33:51.324Z,18.85
2022-10-08T08:36:21.541Z,22.27
2022-10-08T08:38:49.832Z,21.90
2022-10-08T08:41:39.073Z,21.67
2022-10-08T08:44:12.864Z,18.58
2022-10-08T08:46:45.862Z,17.20
2022-10-08T08:49:20.443Z,17.92
2022-10-08T08:51:50.227Z,19.67
2022-10-08T08:54:18.786Z,19.63
2022-10-08T08:56:47.704Z,18.25
2022-10-08T08:59:27.352Z,17.23
2022-10-08T09:01:59.822Z,17.83
2022-10-08T09:04:44.302Z,16.00
2022-10-08T09:07:19.568Z,17.17
2022-10-08T09:09:52.402Z,18.13
2022-10-08T09:12:22.996Z,17.58
2022-10-08T09:14:54.769Z,15.40
2022-10-08T09:17:30.313Z,15.00
2022-10-08T09:19:58.825Z,13.57
2022-10-08T09:22:31.037Z,12.73
2022-10-08T09:25:01.785Z,12.02
2022-10-08T09:27:49.085Z,12.82
2022-10-08T09:30:43.140Z,14.18
2022-10-08T09:33:24.426Z,12.35
2022-10-08T09:35:54.609Z,14.05
2022-10-08T09:38:26.924Z,15.85
2022-10-08T09:41:06.919Z,13.88
2022-10-08T09:43:36.377Z,12.02
2022-10-08T09:46:12.118Z,10.60
2022-10-08T09:48:41.967Z,10.52
2022-10-08T09:51:17.438Z,11.57
2022-10-08T09:53:49.902Z,9.65
2022-10-08T09:56:28.392Z,9.90
2022-10-08T09:59:01.263Z,10.70
2022-10-08T10:01:32.055Z,9.88
2022-10-08T10:04:03.696Z,9.05
2022-10-08T10:06:34.385Z,10.15
2022-10-08T10:09:13.255Z,8.90
2022-10-08T10:11:48.182Z,7.82
2022-10-08T10:14:22.771Z,8.68
2022-10-08T10:16:55.973Z,8.10
2022-10-08T10:19:30.456Z,8.02
2022-10-08T10:22:03.685Z,8.45
2022-10-08T10:24:48.371Z,8.38
2022-10-08T10:27:24.829Z,8.07
2022-10-08T10:30:06.734Z,10.43
2022-10-08T10:32:39.736Z,8.00
2022-10-08T10:35:17.078Z,8.27
2022-10-08T10:37:51.173Z,8.35
2022-10-08T10:40:32.262Z,8.77
2022-10-08T10:43:27.555Z,7.85
2022-10-08T10:46:01.651Z,9.13
2022-10-08T10:48:31.662Z,8.40
2022-10-08T10:51:19.322Z,6.80
2022-10-08T10:54:00.227Z,6.40
2022-10-08T10:56:36.588Z,7.50
2022-10-08T10:59:22.487Z,9.55
2022-10-08T11:01:57.498Z,7.22
2022-10-08T11:04:39.306Z,7.38
2022-10-08T11:07:25.322Z,7.63
2022-10-08T11:10:00.688Z,7.35
2022-10-08T11:12:40.088Z,11.30
2022-10-08T11:15:19.830Z,7.72
2022-10-08T11:18:00.474Z,8.05
2022-10-08T11:20:43.772Z,7.63
2022-10-08T11:23:22.013Z,6.80
2022-10-08T11:26:20.491Z,7.03
2022-10-08T11:28:52.810Z,7.82
2022-10-08T11:31:29.113Z,6.40
2022-10-08T11:33:57.979Z,6.32
2022-10-08T11:36:34.479Z,6.65
2022-10-08T11:39:11.556Z,6.00
2022-10-08T11:41:49.366Z,5.90
2022-10-08T11:44:20.359Z,6.68
2022-10-08T11:46:48.919Z,7.28
2022-10-08T11:49:49.081Z,6.50
2022-10-08T11:52:17.712Z,8.30
2022-10-08T11:54:55.322Z,6.53
2022-10-08T11:57:55.525Z,6.18
2022-10-08T12:00:35.733Z,7.60
2022-10-08T12:03:06.262Z,7.95
2022-10-08T12:05:42.431Z,7.30
2022-10-08T12:08:32.818Z,6.22
2022-10-08T12:11:48.193Z,4.90
2022-10-08T12:14:32.471Z,4.80
2022-10-08T12:17:12.487Z,4.05
2022-10-08T12:20:09.966Z,4.32
2022-10-08T12:23:00.488Z,4.07
2022-10-08T12:25:37.306Z,6.25
2022-10-08T12:28:42.793Z,5.22
2022-10-08T12:31:29.172Z,4.40
2022-10-08T12:34:04.859Z,3.42
2022-10-08T12:36:59.860Z,3.40
2022-10-08T12:39:37.312Z,3.92
2022-10-08T12:42:17.028Z,4.60
2022-10-08T12:44:56.137Z,4.70
2022-10-08T12:47:35.516Z,4.15
2022-10-08T12:50:18.924Z,3.92
2022-10-08T12:52:47.807Z,3.40
2022-10-08T12:55:19.513Z,4.43
2022-10-08T12:57:50.771Z,5.43
2022-10-08T13:00:23.721Z,4.18
2022-10-08T13:03:02.039Z,4.88
2022-10-08T13:05:33.804Z,4.50
2022-10-08T13:08:30.582Z,3.92
2022-10-08T13:11:01.323Z,4.90
2022-10-08T13:13:42.786Z,4.47
2022-10-08T13:16:14.140Z,5.28
2022-10-08T13:18:45.768Z,3.75
2022-10-08T13:21:39.693Z,7.15
2022-10-08T13:24:40.110Z,6.20
2022-10-08T13:27:23.445Z,4.75
2022-10-08T13:29:51.891Z,5.00
2022-10-08T13:32:23.693Z,3.85
2022-10-08T13:34:55.109Z,4.63
2022-10-08T13:37:31.373Z,4.90
2022-10-08T13:40:02.558Z,4.93
2022-10-08T13:42:34.572Z,4.53
2022-10-08T13:45:05.295Z,6.28
2022-10-08T13:47:33.763Z,2.90
2022-10-08T13:50:02.719Z,2.72
2022-10-08T13:52:35.690Z,2.95
2022-10-08T13:55:06.965Z,4.07
2022-10-08T13:57:35.517Z,4.35
2022-10-08T14:00:05.995Z,3.17
2022-10-08T14:02:34.339Z,2.55
2022-10-08T14:05:02.958Z,2.38
2022-10-08T14:07:36.002Z,3.25
2022-10-08T14:10:07.560Z,2.47
2022-10-08T14:12:37.260Z,2.15
2022-10-08T14:15:07.518Z,2.20
2022-10-08T14:17:37.230Z,2.40
2022-10-08T14:20:06.339Z,2.80
2022-10-08T14:22:39.995Z,2.90
2022-10-08T14:25:15.332Z,3.03
2022-10-08T14:27:44.126Z,2.28
2022-10-08T14:30:14.562Z,3.10
2022-10-08T14:32:44.200Z,2.85
2022-10-08T14:35:13.457Z,2.92
2022-10-08T14:37:44.000Z,3.28
2022-10-08T14:40:17.665Z,3.97
2022-10-08T14:42:46.434Z,6.57
2022-10-08T14:45:15.213Z,3.03
2022-10-08T14:47:44.333Z,3.55
2022-10-08T14:50:13.715Z,5.93
2022-10-08T14:52:44.735Z,4.07
2022-10-08T14:55:14.175Z,3.47
2022-10-08T14:57:42.528Z,4.07
2022-10-08T15:00:13.286Z,4.63
2022-10-08T15:02:41.714Z,4.85
2022-10-08T15:05:10.596Z,4.53
2022-10-08T15:07:39.087Z,5.22
2022-10-08T15:10:10.124Z,5.13
2022-10-08T15:12:38.658Z,7.45
2022-10-08T15:15:08.222Z,6.57
2022-10-08T15:17:36.465Z,6.13
2022-10-08T15:20:05.810Z,5.68
2022-10-08T15:22:34.529Z,6.20
2022-10-08T15:25:02.838Z,4.70
2022-10-08T15:27:32.605Z,5.90
2022-10-08T15:30:00.952Z,7.47
2022-10-08T15:32:30.669Z,8.98
2022-10-08T15:34:59.174Z,7.13
2022-10-08T15:37:27.462Z,5.25
2022-10-08T15:39:55.714Z,5.07
2022-10-08T15:42:24.066Z,5.80
2022-10-08T15:44:55.195Z,7.90
2022-10-08T15:47:23.644Z,8.70
2022-10-08T15:49:52.022Z,7.35
2022-10-08T15:52:22.236Z,5.93
2022-10-08T15:54:50.963Z,5.03
2022-10-08T15:57:20.084Z,5.13
2022-10-08T15:59:48.339Z,5.18
2022-10-08T16:02:18.762Z,6.18
2022-10-08T16:04:48.234Z,4.45
2022-10-08T16:07:17.005Z,4.90
2022-10-08T16:09:45.352Z,6.97
2022-10-08T16:12:13.635Z,6.40
2022-10-08T16:14:41.919Z,6.28
2022-10-08T16:17:10.383Z,6.15
2022-10-08T16:19:40.168Z,5.13
2022-10-08T16:22:08.904Z,5.78
2022-10-08T16:24:37.216Z,7.72
2022-10-08T16:27:05.787Z,5.57
2022-10-08T16:29:34.004Z,5.72
2022-10-08T16:32:02.630Z,6.28
2022-10-08T16:34:32.233Z,6.22
2022-10-08T16:37:02.160Z,5.75
2022-10-08T16:39:31.312Z,5.13
2022-10-08T16:41:59.911Z,5.40
2022-10-08T16:44:28.441Z,6.43
2022-10-08T16:46:57.373Z,5.13
2022-10-08T16:49:27.537Z,5.25
2022-10-08T16:51:58.271Z,6.00
2022-10-08T16:54:29.542Z,7.55
2022-10-08T16:56:58.487Z,8.50
2022-10-08T16:59:28.890Z,6.03
2022-10-08T17:01:59.833Z,7.20
2022-10-08T17:04:29.993Z,8.60
2022-10-08T17:06:58.742Z,6.13
2022-10-08T17:09:29.524Z,5.85
2022-10-08T17:11:58.389Z,7.90
2022-10-08T17:14:27.436Z,8.95
2022-10-08T17:16:56.487Z,7.30
2022-10-08T17:19:25.069Z,8.20
2022-10-08T17:21:53.448Z,6.78
2022-10-08T17:24:22.184Z,6.72
2022-10-08T17:26:52.145Z,5.60
2022-10-08T17:29:20.678Z,5.38
2022-10-08T17:31:49.316Z,8.52
2022-10-08T17:34:17.757Z,8.23
2022-10-08T17:36:46.795Z,7.22
2022-10-08T17:39:15.876Z,6.93
2022-10-08T17:41:44.828Z,6.20
2022-10-08T17:44:14.999Z,5.78
2022-10-08T17:46:46.239Z,7.60
2022-10-08T17:49:15.737Z,6.00
2022-10-08T17:51:44.184Z,8.70
2022-10-08T17:54:15.126Z,7.53
2022-10-08T17:56:43.850Z,5.35
2022-10-08T17:59:16.000Z,5.45
2022-10-08T18:01:45.519Z,4.80
2022-10-08T18:04:17.263Z,5.43
2022-10-08T18:06:47.499Z,5.72
2022-10-08T18:09:18.814Z,6.35
2022-10-08T18:11:52.350Z,5.82
2022-10-08T18:14:23.215Z,7.55
2022-10-08T18:16:51.870Z,5.97
2022-10-08T18:19:20.997Z,7.78
2022-10-08T18:21:49.804Z,6.22
2022-10-08T18:24:19.181Z,7.07
2022-10-08T18:26:47.966Z,6.28
2022-10-08T18:29:16.928Z,6.45
2022-10-08T18:31:47.934Z,6.53
2022-10-08T18:34:18.765Z,6.50
2022-10-08T18:36:47.714Z,6.05
2022-10-08T18:39:18.324Z,6.60
2022-10-08T18:41:48.595Z,5.93
2022-10-08T18:44:19.366Z,6.45
2022-10-08T18:46:49.106Z,6.93
2022-10-08T18:49:19.740Z,6.20
2022-10-08T18:51:51.332Z,7.72
2022-10-08T18:54:20.431Z,6.20
2022-10-08T18:56:48.969Z,7.32
2022-10-08T18:59:19.684Z,8.88
2022-10-08T19:01:49.820Z,6.90
2022-10-08T19:04:20.180Z,6.03
2022-10-08T19:06:50.500Z,5.25
2022-10-08T19:09:19.359Z,6.18
2022-10-08T19:11:49.431Z,6.80
2022-10-08T19:14:19.720Z,8.10
2022-10-08T19:16:50.152Z,8.18
2022-10-08T19:19:20.227Z,6.65
2022-10-08T19:21:48.948Z,6.88
2022-10-08T19:24:19.513Z,5.97
2022-10-08T19:26:49.012Z,6.88
2022-10-08T19:29:19.247Z,5.82
2022-10-08T19:31:50.405Z,6.32
2022-10-08T19:34:20.486Z,5.40
2022-10-08T19:36:49.741Z,5.57
2022-10-08T19:39:20.615Z,5.03
2022-10-08T19:41:49.580Z,5.55
2022-10-08T19:44:18.060Z,5.35
2022-10-08T19:46:46.901Z,6.05
2022-10-08T19:49:17.714Z,5.22
2022-10-08T19:51:46.862Z,4.88
2022-10-08T19:54:16.472Z,5.00
2022-10-08T19:56:45.354Z,4.85
2022-10-08T19:59:14.815Z,4.95
2022-10-08T20:01:45.038Z,4.75
2022-10-08T20:04:16.818Z,5.25
2022-10-08T20:06:47.495Z,6.03
2022-10-08T20:09:16.910Z,10.45
2022-10-08T20:11:47.335Z,7.22
2022-10-08T20:14:17.715Z,5.60
2022-10-08T20:16:46.512Z,5.65
2022-10-08T20:19:17.089Z,7.20
2022-10-08T20:21:48.053Z,5.15
2022-10-08T20:24:17.507Z,5.35
2022-10-08T20:26:49.280Z,5.20
2022-10-08T20:29:20.686Z,4.78
2022-10-08T20:31:51.048Z,4.90
2022-10-08T20:34:22.220Z,4.25
2022-10-08T20:36:52.503Z,4.43
2022-10-08T20:39:22.844Z,4.75
2022-10-08T20:41:51.957Z,6.70
2022-10-08T20:44:20.859Z,4.70
2022-10-08T20:46:51.184Z,5.43
2022-10-08T20:49:20.216Z,4.40
2022-10-08T20:51:48.742Z,4.63
2022-10-08T20:54:19.093Z,4.07
2022-10-08T20:56:47.668Z,4.82
2022-10-08T20:59:18.054Z,5.63
2022-10-08T21:01:46.900Z,3.80
2022-10-08T21:04:15.283Z,5.03
2022-10-08T21:06:45.263Z,4.28
2022-10-08T21:09:14.127Z,4.15
2022-10-08T21:11:46.006Z,3.70
2022-10-08T21:14:17.613Z,6.82
2022-10-08T21:16:47.173Z,4.75
2022-10-08T21:19:18.835Z,5.20
2022-10-08T21:21:47.296Z,4.93
2022-10-08T21:24:15.629Z,4.15
2022-10-08T21:26:45.656Z,4.70
2022-10-08T21:29:15.608Z,3.83
2022-10-08T21:31:44.526Z,4.88
2022-10-08T21:34:13.706Z,5.57
2022-10-08T21:36:44.144Z,4.82
2022-10-08T21:39:16.255Z,3.85
2022-10-08T21:41:46.331Z,4.15
2022-10-08T21:44:15.178Z,4.40
2022-10-08T21:46:44.572Z,5.38
2022-10-08T21:49:14.657Z,4.47
2022-10-08T21:51:43.413Z,4.55
2022-10-08T21:54:12.069Z,4.68
2022-10-08T21:56:42.145Z,4.20
2022-10-08T21:59:14.983Z,4.53
2022-10-08T22:01:45.013Z,4.10
2022-10-08T22:04:15.671Z,4.40
2022-10-08T22:06:46.845Z,4.40
2022-10-08T22:09:18.323Z,3.85
2022-10-08T22:11:46.940Z,4.88
2022-10-08T22:14:17.091Z,3.95
2022-10-08T22:16:46.255Z,4.70
2022-10-08T22:19:14.837Z,3.97
2022-10-08T22:21:43.536Z,4.57
2022-10-08T22:24:12.372Z,4.38
2022-10-08T22:26:43.322Z,4.22
2022-10-08T22:29:12.306Z,7.53
2022-10-08T22:31:42.138Z,4.28
2022-10-08T22:34:10.777Z,4.35
2022-10-08T22:36:41.413Z,4.28
2022-10-08T22:39:09.756Z,6.18
2022-10-08T22:41:38.110Z,6.95
2022-10-08T22:44:06.792Z,4.43
2022-10-08T22:46:37.885Z,4.03
2022-10-08T22:49:09.755Z,4.40
2022-10-08T22:51:38.949Z,4.40
2022-10-08T22:54:07.740Z,4.57
2022-10-08T22:56:36.025Z,3.85
2022-10-08T22:59:04.390Z,4.18
2022-10-08T23:01:33.486Z,5.05
2022-10-08T23:04:01.798Z,4.60
2022-10-08T23:06:33.693Z,4.82
2022-10-08T23:09:03.794Z,4.63
2022-10-08T23:11:32.851Z,4.10
2022-10-08T23:14:02.142Z,4.50
2022-10-08T23:16:32.251Z,4.03
2022-10-08T23:19:04.943Z,4.10
2022-10-08T23:21:35.347Z,6.32
2022-10-08T23:24:05.988Z,4.75
2022-10-08T23:26:36.809Z,4.30
2022-10-08T23:29:07.505Z,6.45
2022-10-08T23:31:37.418Z,4.25
2022-10-08T23:34:07.875Z,4.47
2022-10-08T23:36:40.144Z,4.38
2022-10-08T23:39:10.350Z,5.30
2022-10-08T23:41:38.659Z,5.55
2022-10-08T23:44:07.407Z,4.30
2022-10-08T23:46:35.812Z,4.25
2022-10-08T23:49:04.800Z,4.10
2022-10-08T23:51:33.716Z,4.00
2022-10-08T23:54:03.651Z,4.10
2022-10-08T23:56:32.411Z,4.65
2022-10-08T23:59:00.735Z,4.10
